createdAt,value
2023-01-21T00:01:21.815Z,29.52
2023-01-21T00:03:50.414Z,29.85
2023-01-21T00:06:18.800Z,30.17
2023-01-21T00:08:47.336Z,29.33
2023-01-21T00:11:16.941Z,29.38
2023-01-21T00:13:47.420Z,30.08
2023-01-21T00:16:16.068Z,29.60
2023-01-21T00:18:44.345Z,30.88
2023-01-21T00:21:12.590Z,29.98
2023-01-21T00:23:41.336Z,29.25
2023-01-21T00:26:11.942Z,29.50
2023-01-21T00:28:41.811Z,30.05
2023-01-21T00:31:13.615Z,29.25
2023-01-21T00:33:42.001Z,30.45
2023-01-21T00:36:12.517Z,29.83
2023-01-21T00:38:40.956Z,30.08
2023-01-21T00:41:11.093Z,30.30
2023-01-21T00:43:40.451Z,30.00
2023-01-21T00:46:10.311Z,29.85
2023-01-21T00:48:38.780Z,28.95
2023-01-21T00:51:07.429Z,30.92
2023-01-21T00:53:38.385Z,29.10
2023-01-21T00:56:08.315Z,29.92
2023-01-21T00:58:37.385Z,29.60
2023-01-21T01:01:07.899Z,29.88
2023-01-21T01:03:38.542Z,30.58
2023-01-21T01:06:09.545Z,31.30
2023-01-21T01:08:37.710Z,31.25
2023-01-21T01:11:06.915Z,31.33
2023-01-21T01:13:36.411Z,31.40
2023-01-21T01:16:04.880Z,30.90
2023-01-21T01:18:35.098Z,30.10
2023-01-21T01:21:06.439Z,30.42
2023-01-21T01:23:34.689Z,30.67
2023-01-21T01:26:05.012Z,30.15
2023-01-21T01:28:34.940Z,29.77
2023-01-21T01:31:06.665Z,30.95
2023-01-21T01:33:35.632Z,30.48
2023-01-21T01:36:07.112Z,31.88
2023-01-21T01:38:35.922Z,31.73
2023-01-21T01:41:04.582Z,33.58
2023-01-21T01:43:52.952Z,32.28
2023-01-21T01:46:21.610Z,31.52
2023-01-21T01:48:56.009Z,32.35
2023-01-21T01:51:31.183Z,33.63
2023-01-21T01:53:59.754Z,32.90
2023-01-21T01:56:29.138Z,33.78
2023-01-21T01:58:57.682Z,34.83
2023-01-21T02:01:26.521Z,35.15
2023-01-21T02:03:59.650Z,34.67
2023-01-21T02:06:29.630Z,34.45
2023-01-21T02:08:58.310Z,34.42
2023-01-21T02:11:26.772Z,34.55
2023-01-21T02:13:58.590Z,34.58
2023-01-21T02:16:59.210Z,34.50
2023-01-21T02:19:52.210Z,34.63
2023-01-21T02:22:29.510Z,34.45
2023-01-21T02:25:35.974Z,35.03
2023-01-21T02:28:32.264Z,34.63
2023-01-21T02:31:25.827Z,32.67
2023-01-21T02:34:14.038Z,33.95
2023-01-21T02:37:03.533Z,32.55
2023-01-21T02:39:46.592Z,32.85
2023-01-21T02:42:23.617Z,34.45
2023-01-21T02:44:58.996Z,32.42
2023-01-21T02:47:32.149Z,33.05
2023-01-21T02:50:06.149Z,33.05
2023-01-21T02:52:34.560Z,31.90
2023-01-21T02:55:04.328Z,33.28
2023-01-21T02:57:42.228Z,34.53
2023-01-21T03:00:15.868Z,33.97
2023-01-21T03:03:22.746Z,33.60
2023-01-21T03:06:28.151Z,34.83
2023-01-21T03:09:00.905Z,32.50
2023-01-21T03:11:30.076Z,32.60
2023-01-21T03:14:20.952Z,34.50
2023-01-21T03:16:59.333Z,36.33
2023-01-21T03:19:34.175Z,33.72
2023-01-21T03:22:08.158Z,33.08
2023-01-21T03:24:39.644Z,34.40
2023-01-21T03:27:10.063Z,35.67
2023-01-21T03:29:42.388Z,34.97
2023-01-21T03:32:15.269Z,34.35
2023-01-21T03:34:48.768Z,34.90
2023-01-21T03:37:22.948Z,33.53
2023-01-21T03:40:00.394Z,35.72
2023-01-21T03:42:28.886Z,34.50
2023-01-21T03:44:57.762Z,34.83
2023-01-21T03:47:29.672Z,34.72
2023-01-21T03:50:02.248Z,34.75
2023-01-21T03:52:32.119Z,34.42
2023-01-21T03:55:00.716Z,33.92
2023-01-21T03:57:28.885Z,35.88
2023-01-21T03:59:57.503Z,35.38
2023-01-21T04:02:25.848Z,34.50
2023-01-21T04:04:54.085Z,34.80
2023-01-21T04:07:22.603Z,34.85
2023-01-21T04:09:52.286Z,36.17
2023-01-21T04:12:20.458Z,33.95
2023-01-21T04:14:49.194Z,33.83
2023-01-21T04:17:17.419Z,34.63
2023-01-21T04:19:45.662Z,36.47
2023-01-21T04:22:14.585Z,36.33
2023-01-21T04:24:43.081Z,34.35
2023-01-21T04:27:12.719Z,36.55
2023-01-21T04:29:41.010Z,35.22
2023-01-21T04:32:09.564Z,36.08
2023-01-21T04:34:37.828Z,35.65
2023-01-21T04:37:06.385Z,36.35
2023-01-21T04:39:34.843Z,34.92
2023-01-21T04:42:03.057Z,36.05
2023-01-21T04:44:32.798Z,36.17
2023-01-21T04:47:01.197Z,34.78
2023-01-21T04:49:29.342Z,34.72
2023-01-21T04:51:57.785Z,35.53
2023-01-21T04:54:26.328Z,35.25
2023-01-21T04:56:54.590Z,36.33
2023-01-21T04:59:23.037Z,35.85
2023-01-21T05:01:52.627Z,36.85
2023-01-21T05:04:20.968Z,36.72
2023-01-21T05:06:49.398Z,35.90
2023-01-21T05:09:17.587Z,35.75
2023-01-21T05:11:46.282Z,36.63
2023-01-21T05:14:14.689Z,36.47
2023-01-21T05:16:42.972Z,37.45
2023-01-21T05:19:12.659Z,37.42
2023-01-21T05:21:41.429Z,37.67
2023-01-21T05:24:09.912Z,37.13
2023-01-21T05:26:38.211Z,35.92
2023-01-21T05:29:06.604Z,37.60
2023-01-21T05:31:35.025Z,37.13
2023-01-21T05:34:03.534Z,36.42
2023-01-21T05:36:33.235Z,36.22
2023-01-21T05:39:01.445Z,38.08
2023-01-21T05:41:29.869Z,39.17
2023-01-21T05:43:58.262Z,39.05
2023-01-21T05:46:26.923Z,37.83
2023-01-21T05:48:55.092Z,38.78
2023-01-21T05:51:23.916Z,39.75
2023-01-21T05:53:53.543Z,39.50
2023-01-21T05:56:21.714Z,39.78
2023-01-21T05:58:50.129Z,38.97
2023-01-21T06:01:18.325Z,39.22
2023-01-21T06:03:46.569Z,38.83
2023-01-21T06:06:15.197Z,40.22
2023-01-21T06:08:43.381Z,39.35
2023-01-21T06:11:13.013Z,40.10
2023-01-21T06:13:41.951Z,39.67
2023-01-21T06:16:10.258Z,39.90
2023-01-21T06:18:38.569Z,37.80
2023-01-21T06:21:07.158Z,40.50
2023-01-21T06:23:35.359Z,38.05
2023-01-21T06:26:04.795Z,38.47
2023-01-21T06:28:34.746Z,38.13
2023-01-21T06:31:03.166Z,38.17
2023-01-21T06:33:31.352Z,39.13
2023-01-21T06:35:59.880Z,37.83
2023-01-21T06:38:28.154Z,39.47
2023-01-21T06:40:56.337Z,38.47
2023-01-21T06:43:24.649Z,37.30
2023-01-21T06:45:54.235Z,38.28
2023-01-21T06:48:22.442Z,37.47
2023-01-21T06:50:50.979Z,37.45
2023-01-21T06:53:19.193Z,37.08
2023-01-21T06:55:48.110Z,38.28
2023-01-21T06:58:16.558Z,37.92
2023-01-21T07:00:44.775Z,38.60
2023-01-21T07:03:14.366Z,38.67
2023-01-21T07:05:42.949Z,37.78
2023-01-21T07:08:11.162Z,37.70
2023-01-21T07:10:39.553Z,37.90
2023-01-21T07:13:07.883Z,37.58
2023-01-21T07:15:36.515Z,38.25
2023-01-21T07:18:05.343Z,38.67
2023-01-21T07:20:35.439Z,37.53
2023-01-21T07:23:03.737Z,39.03
2023-01-21T07:25:32.452Z,37.42
2023-01-21T07:28:00.761Z,38.78
2023-01-21T07:30:29.133Z,38.53
2023-01-21T07:32:57.298Z,37.47
2023-01-21T07:35:25.837Z,37.88
2023-01-21T07:37:55.559Z,37.55
2023-01-21T07:40:23.767Z,36.70
2023-01-21T07:42:52.986Z,36.70
2023-01-21T07:45:21.337Z,37.72
2023-01-21T07:47:49.661Z,38.80
2023-01-21T07:50:18.362Z,38.60
2023-01-21T07:52:46.637Z,38.00
2023-01-21T07:55:17.360Z,40.28
2023-01-21T07:57:45.871Z,37.88
2023-01-21T08:00:15.612Z,38.00
2023-01-21T08:02:43.834Z,38.60
2023-01-21T08:05:12.387Z,37.88
2023-01-21T08:07:40.882Z,38.95
2023-01-21T08:10:10.009Z,38.35
2023-01-21T08:12:41.944Z,36.97
2023-01-21T08:15:11.419Z,35.78
2023-01-21T08:17:40.271Z,36.33
2023-01-21T08:20:10.750Z,36.60
2023-01-21T08:22:40.085Z,35.00
2023-01-21T08:25:09.310Z,34.15
2023-01-21T08:27:37.565Z,33.25
2023-01-21T08:30:08.764Z,32.60
2023-01-21T08:32:37.220Z,32.08
2023-01-21T08:35:06.382Z,32.47
2023-01-21T08:37:34.553Z,31.30
2023-01-21T08:40:03.210Z,31.83
2023-01-21T08:42:31.468Z,31.75
2023-01-21T08:44:59.668Z,31.52
2023-01-21T08:47:29.484Z,32.53
2023-01-21T08:49:57.757Z,31.33
2023-01-21T08:52:26.183Z,32.72
2023-01-21T08:54:54.751Z,31.92
2023-01-21T08:57:23.175Z,31.40
2023-01-21T08:59:51.408Z,31.45
2023-01-21T09:02:19.892Z,29.80
2023-01-21T09:04:50.656Z,31.13
2023-01-21T09:07:21.581Z,30.58
2023-01-21T09:09:50.056Z,31.17
2023-01-21T09:12:18.330Z,29.63
2023-01-21T09:14:46.668Z,31.65
2023-01-21T09:17:15.083Z,30.40
2023-01-21T09:19:43.583Z,28.98
2023-01-21T09:22:13.921Z,29.75
2023-01-21T09:24:42.427Z,29.27
2023-01-21T09:27:11.160Z,29.63
2023-01-21T09:29:39.544Z,31.10
2023-01-21T09:32:07.924Z,30.63
2023-01-21T09:34:36.729Z,30.95
2023-01-21T09:37:05.200Z,28.73
2023-01-21T09:39:34.862Z,29.50
2023-01-21T09:42:03.299Z,29.90
2023-01-21T09:44:34.828Z,30.65
2023-01-21T09:47:07.504Z,28.83
2023-01-21T09:49:41.644Z,29.13
2023-01-21T09:52:27.593Z,28.65
2023-01-21T09:54:58.525Z,29.02
2023-01-21T09:58:05.161Z,28.63
2023-01-21T10:00:36.939Z,27.77
2023-01-21T10:03:17.474Z,29.92
2023-01-21T10:06:22.170Z,29.35
2023-01-21T10:09:12.154Z,28.58
2023-01-21T10:11:54.818Z,27.80
2023-01-21T10:14:46.458Z,29.40
2023-01-21T10:17:19.499Z,29.63
2023-01-21T10:19:54.350Z,28.65
2023-01-21T10:22:27.931Z,29.40
2023-01-21T10:25:01.386Z,30.15
2023-01-21T10:27:34.672Z,30.00
2023-01-21T10:30:08.728Z,30.15
2023-01-21T10:32:40.577Z,28.85
2023-01-21T10:35:19.108Z,28.60
2023-01-21T10:37:54.546Z,28.75
2023-01-21T10:43:35.200Z,28.70
2023-01-21T10:46:16.268Z,29.13
2023-01-21T10:48:51.919Z,28.02
2023-01-21T10:51:26.009Z,27.55
2023-01-21T10:54:00.764Z,28.65
2023-01-21T10:56:41.165Z,28.67
2023-01-21T10:59:14.299Z,27.95
2023-01-21T11:01:46.253Z,27.60
2023-01-21T11:04:19.402Z,27.52
2023-01-21T11:06:58.723Z,27.75
2023-01-21T11:09:29.820Z,27.02
2023-01-21T11:11:58.075Z,28.30
2023-01-21T11:14:28.036Z,28.08
2023-01-21T11:16:57.392Z,26.70
2023-01-21T11:19:29.117Z,27.95
2023-01-21T11:22:04.376Z,27.63
2023-01-21T11:24:43.220Z,27.52
2023-01-21T11:27:21.068Z,26.83
2023-01-21T11:29:51.565Z,26.23
2023-01-21T11:32:22.910Z,26.02
2023-01-21T11:34:53.362Z,26.85
2023-01-21T11:37:25.257Z,27.05
2023-01-21T11:39:57.017Z,26.63
2023-01-21T11:42:25.748Z,26.02
2023-01-21T11:44:58.447Z,28.25
2023-01-21T11:47:31.339Z,27.67
2023-01-21T11:50:10.936Z,26.73
2023-01-21T11:52:39.176Z,27.15
2023-01-21T11:55:20.335Z,27.10
2023-01-21T11:57:53.242Z,25.80
2023-01-21T12:00:27.179Z,26.15
2023-01-21T12:02:59.655Z,27.20
2023-01-21T12:05:33.577Z,26.92
2023-01-21T12:08:03.590Z,26.67
2023-01-21T12:10:34.819Z,26.77
2023-01-21T12:13:20.142Z,25.75
2023-01-21T12:16:20.491Z,25.58
2023-01-21T12:19:18.705Z,26.08
2023-01-21T12:22:16.775Z,25.05
2023-01-21T12:25:06.244Z,24.48
2023-01-21T12:27:46.030Z,25.30
2023-01-21T12:30:26.062Z,24.88
2023-01-21T12:33:00.489Z,24.50
2023-01-21T12:35:34.752Z,26.17
2023-01-21T12:38:09.082Z,23.48
2023-01-21T12:40:42.218Z,24.20
2023-01-21T12:43:17.682Z,23.65
2023-01-21T12:45:49.718Z,23.40
2023-01-21T12:48:27.719Z,24.38
2023-01-21T12:51:00.507Z,23.40
2023-01-21T12:53:37.526Z,25.43
2023-01-21T12:56:24.933Z,24.48
2023-01-21T12:58:58.144Z,24.58
2023-01-21T13:01:41.312Z,24.20
2023-01-21T13:04:23.899Z,24.48
2023-01-21T13:06:58.400Z,23.35
2023-01-21T13:09:35.840Z,24.33
2023-01-21T13:12:07.521Z,23.75
2023-01-21T13:14:40.272Z,23.65
2023-01-21T13:17:16.284Z,23.13
2023-01-21T13:19:46.232Z,24.27
2023-01-21T13:22:26.242Z,23.77
2023-01-21T13:25:12.914Z,24.77
2023-01-21T13:27:48.529Z,25.23
2023-01-21T13:30:25.885Z,23.85
2023-01-21T13:33:03.029Z,25.35
2023-01-21T13:35:44.651Z,24.25
2023-01-21T13:38:23.114Z,23.70
2023-01-21T13:40:56.319Z,24.05
2023-01-21T13:43:44.173Z,23.50
2023-01-21T13:46:35.326Z,23.33
2023-01-21T13:49:20.050Z,23.60
2023-01-21T13:52:01.679Z,23.58
2023-01-21T13:54:44.448Z,23.90
2023-01-21T13:57:31.123Z,25.92
2023-01-21T14:00:04.837Z,24.45
2023-01-21T14:02:41.276Z,25.33
2023-01-21T14:05:17.687Z,25.85
2023-01-21T14:07:51.751Z,26.90
2023-01-21T14:10:26.967Z,28.92
2023-01-21T14:13:20.576Z,27.23
2023-01-21T14:16:02.794Z,27.50
2023-01-21T14:18:48.620Z,28.35
2023-01-21T14:21:46.007Z,29.55
2023-01-21T14:24:31.506Z,30.00
2023-01-21T14:27:09.527Z,31.90
2023-01-21T14:29:45.204Z,33.20
2023-01-21T14:32:18.164Z,35.25
2023-01-21T14:34:55.634Z,34.53
2023-01-21T14:37:31.600Z,36.30
2023-01-21T14:40:10.434Z,35.75
2023-01-21T14:42:44.086Z,35.05
2023-01-21T14:47:53.930Z,32.03
2023-01-21T14:50:46.152Z,32.03
2023-01-21T14:53:20.342Z,31.05
2023-01-21T14:56:07.753Z,30.27
2023-01-21T14:58:37.510Z,30.75
2023-01-21T15:01:08.015Z,30.67
2023-01-21T15:03:50.632Z,33.05
2023-01-21T15:06:23.665Z,35.30
2023-01-21T15:08:54.825Z,34.88
2023-01-21T15:11:30.427Z,37.38
2023-01-21T15:14:11.856Z,36.92
2023-01-21T15:16:41.727Z,36.33
2023-01-21T15:19:29.418Z,37.97
2023-01-21T15:22:40.907Z,39.35
2023-01-21T15:25:31.893Z,37.28
2023-01-21T15:28:36.731Z,38.90
2023-01-21T15:31:08.478Z,38.25
2023-01-21T15:33:47.953Z,39.75
2023-01-21T15:36:24.416Z,37.17
2023-01-21T15:38:54.628Z,37.67
2023-01-21T15:41:42.533Z,35.78
2023-01-21T15:44:45.592Z,33.10
2023-01-21T15:47:46.597Z,32.85
2023-01-21T15:50:22.636Z,32.92
2023-01-21T15:53:17.336Z,31.30
2023-01-21T15:56:07.218Z,31.75
2023-01-21T15:58:47.408Z,28.70
2023-01-21T16:01:26.763Z,28.75
2023-01-21T16:04:13.867Z,30.00
2023-01-21T16:06:50.761Z,28.13
2023-01-21T16:09:28.972Z,28.67
2023-01-21T16:12:09.536Z,28.85
2023-01-21T16:14:52.680Z,30.08
2023-01-21T16:17:24.728Z,28.13
2023-01-21T16:19:58.355Z,28.52
2023-01-21T16:25:02.131Z,28.23
2023-01-21T16:27:32.521Z,29.10
2023-01-21T16:30:02.492Z,31.10
2023-01-21T16:32:32.562Z,30.85
2023-01-21T16:35:02.426Z,30.65
2023-01-21T16:37:32.294Z,32.90
2023-01-21T16:40:26.437Z,32.05
2023-01-21T16:45:34.998Z,31.40
2023-01-21T16:48:03.281Z,32.90
2023-01-21T16:50:33.457Z,33.33
2023-01-21T16:53:08.861Z,33.70
2023-01-21T16:55:45.110Z,36.15
2023-01-21T16:58:26.730Z,34.40
2023-01-21T17:01:06.050Z,35.15
2023-01-21T17:03:35.478Z,35.83
2023-01-21T17:06:10.217Z,37.08
2023-01-21T17:08:39.690Z,38.20
2023-01-21T17:11:10.747Z,33.22
2023-01-21T17:13:44.044Z,34.72
2023-01-21T17:16:21.553Z,34.80
2023-01-21T17:18:55.656Z,34.65
2023-01-21T17:21:33.743Z,34.10
2023-01-21T17:24:05.986Z,35.00
2023-01-21T17:26:38.223Z,38.78
2023-01-21T17:29:12.886Z,39.25
2023-01-21T17:31:43.340Z,40.67
2023-01-21T17:34:23.459Z,39.08
2023-01-21T17:36:55.291Z,38.00
2023-01-21T17:39:58.180Z,35.15
2023-01-21T17:42:31.242Z,38.80
2023-01-21T17:45:02.172Z,38.50
2023-01-21T17:47:33.787Z,38.05
2023-01-21T17:50:06.829Z,38.53
2023-01-21T17:52:36.761Z,36.67
2023-01-21T17:55:27.353Z,36.35
2023-01-21T17:57:56.233Z,38.67
2023-01-21T18:00:41.308Z,37.83
2023-01-21T18:03:09.926Z,37.80
2023-01-21T18:05:39.286Z,38.67
2023-01-21T18:08:15.011Z,39.85
2023-01-21T18:10:44.461Z,39.78
2023-01-21T18:13:13.366Z,38.00
2023-01-21T18:15:43.217Z,38.55
2023-01-21T18:18:17.388Z,39.00
2023-01-21T18:20:46.875Z,39.75
2023-01-21T18:23:18.245Z,38.08
2023-01-21T18:25:49.682Z,37.95
2023-01-21T18:28:20.639Z,37.35
2023-01-21T18:30:50.040Z,39.75
2023-01-21T18:33:19.219Z,37.85
2023-01-21T18:35:49.551Z,35.75
2023-01-21T18:38:27.412Z,35.50
2023-01-21T18:40:56.324Z,36.65
2023-01-21T18:43:25.056Z,36.00
2023-01-21T18:45:54.573Z,35.00
2023-01-21T18:48:29.850Z,35.30
2023-01-21T18:50:58.289Z,31.75
2023-01-21T18:53:28.052Z,32.40
2023-01-21T18:55:56.293Z,33.03
2023-01-21T18:58:24.828Z,32.58
2023-01-21T19:00:53.402Z,32.58
2023-01-21T19:03:23.198Z,31.48
2023-01-21T19:05:52.728Z,31.08
2023-01-21T19:08:24.853Z,29.88
2023-01-21T19:10:55.292Z,29.48
2023-01-21T19:13:23.716Z,29.92
2023-01-21T19:15:53.524Z,31.17
2023-01-21T19:18:21.856Z,30.30
2023-01-21T19:20:50.318Z,30.85
2023-01-21T19:23:19.151Z,31.15
2023-01-21T19:25:52.093Z,30.55
2023-01-21T19:28:22.784Z,30.33
2023-01-21T19:30:55.582Z,30.73
2023-01-21T19:33:24.826Z,29.42
2023-01-21T19:36:00.606Z,31.98
2023-01-21T19:38:29.211Z,30.88
2023-01-21T19:40:57.485Z,31.88
2023-01-21T19:43:27.366Z,33.17
2023-01-21T19:45:55.872Z,31.98
2023-01-21T19:48:24.224Z,33.30
2023-01-21T19:50:52.591Z,32.78
2023-01-21T19:53:22.348Z,33.85
2023-01-21T19:55:51.140Z,32.72
2023-01-21T19:58:21.465Z,33.80
2023-01-21T20:00:53.706Z,34.15
2023-01-21T20:03:24.271Z,33.95
2023-01-21T20:05:54.991Z,34.13
2023-01-21T20:08:25.448Z,33.92
2023-01-21T20:10:53.926Z,35.33
2023-01-21T20:13:22.434Z,35.45
2023-01-21T20:15:53.752Z,35.75
2023-01-21T20:18:28.065Z,36.17
2023-01-21T20:20:56.936Z,34.92
2023-01-21T20:23:25.267Z,36.08
2023-01-21T20:25:56.690Z,36.13
2023-01-21T20:28:26.726Z,36.58
2023-01-21T20:30:57.255Z,35.50
2023-01-21T20:33:26.851Z,34.60
2023-01-21T20:35:56.976Z,37.17
2023-01-21T20:38:28.601Z,36.85
2023-01-21T20:40:57.078Z,35.85
2023-01-21T20:43:25.523Z,35.42
2023-01-21T20:45:56.444Z,36.40
2023-01-21T20:48:28.666Z,36.40
2023-01-21T20:50:56.953Z,36.30
2023-01-21T20:53:25.503Z,36.45
2023-01-21T20:55:55.813Z,37.10
2023-01-21T20:58:24.171Z,34.45
2023-01-21T21:00:52.453Z,36.25
2023-01-21T21:03:22.576Z,36.75
2023-01-21T21:05:51.155Z,36.53
2023-01-21T21:08:21.887Z,35.00
2023-01-21T21:10:52.953Z,37.55
2023-01-21T21:13:21.184Z,36.50
2023-01-21T21:15:50.895Z,37.13
2023-01-21T21:18:19.368Z,34.03
2023-01-21T21:20:49.044Z,35.22
2023-01-21T21:23:17.308Z,36.20
2023-01-21T21:25:46.865Z,33.80
2023-01-21T21:28:16.433Z,34.30
2023-01-21T21:30:45.437Z,35.33
2023-01-21T21:33:19.123Z,34.17
2023-01-21T21:35:49.837Z,33.90
2023-01-21T21:38:21.948Z,34.63
2023-01-21T21:40:53.126Z,34.72
2023-01-21T21:43:36.014Z,33.58
2023-01-21T21:46:25.908Z,34.40
2023-01-21T21:48:54.707Z,33.53
2023-01-21T21:51:25.152Z,32.58
2023-01-21T21:53:53.654Z,31.05
2023-01-21T21:56:23.407Z,31.90
2023-01-21T21:58:52.841Z,31.20
2023-01-21T22:01:23.171Z,33.22
2023-01-21T22:03:52.031Z,32.08
2023-01-21T22:06:21.990Z,31.00
2023-01-21T22:08:54.447Z,30.80
2023-01-21T22:11:24.209Z,31.77
2023-01-21T22:13:53.241Z,32.75
2023-01-21T22:16:23.892Z,31.20
2023-01-21T22:18:53.228Z,32.30
2023-01-21T22:21:23.604Z,33.78
2023-01-21T22:23:54.055Z,32.30
2023-01-21T22:26:24.535Z,33.08
2023-01-21T22:28:52.963Z,34.10
2023-01-21T22:31:23.660Z,33.00
2023-01-21T22:33:52.777Z,34.90
2023-01-21T22:36:22.773Z,33.13
2023-01-21T22:38:53.128Z,34.60
2023-01-21T22:41:23.275Z,34.28
2023-01-21T22:43:52.519Z,34.20
2023-01-21T22:46:23.576Z,33.70
2023-01-21T22:48:53.747Z,34.33
2023-01-21T22:51:23.099Z,33.25
2023-01-21T22:53:53.689Z,32.70
2023-01-21T22:56:44.774Z,33.38
2023-01-21T22:59:14.226Z,33.80
2023-01-21T23:01:42.935Z,33.78
2023-01-21T23:04:11.518Z,33.28
2023-01-21T23:06:40.157Z,35.05
2023-01-21T23:09:11.636Z,35.47
2023-01-21T23:11:41.783Z,37.30
2023-01-21T23:14:10.753Z,37.00
2023-01-21T23:16:39.382Z,35.55
2023-01-21T23:19:07.978Z,34.88
2023-01-21T23:21:37.695Z,35.25
2023-01-21T23:24:06.697Z,35.92
2023-01-21T23:26:36.469Z,35.25
2023-01-21T23:29:05.045Z,29.58
2023-01-21T23:31:33.372Z,29.52
2023-01-21T23:34:03.424Z,28.40
2023-01-21T23:36:31.673Z,29.88
2023-01-21T23:38:59.863Z,28.25
2023-01-21T23:41:28.302Z,27.85
2023-01-21T23:44:00.301Z,29.83
2023-01-21T23:46:28.911Z,30.88
2023-01-21T23:48:57.702Z,30.88
2023-01-21T23:51:25.944Z,33.03
2023-01-21T23:53:54.234Z,30.23
2023-01-21T23:56:24.341Z,34.63
2023-01-21T23:58:53.019Z,31.88
